sensor_id;sensor_type;location;lat;lon;timestamp;pressure;altitude;pressure_sealevel;temperature
76895;BMP280;65855;42.030;13.078;2023-03-23T00:01:00;93731.16;;;7.75
76895;BMP280;65855;42.030;13.078;2023-03-23T00:03:26;93734.75;;;7.35
76895;BMP280;65855;42.030;13.078;2023-03-23T00:05:54;93733.06;;;6.96
76895;BMP280;65855;42.030;13.078;2023-03-23T00:08:25;93733.78;;;6.53
76895;BMP280;65855;42.030;13.078;2023-03-23T00:10:51;93736.81;;;6.84
76895;BMP280;65855;42.030;13.078;2023-03-23T00:13:26;93735.28;;;7.13
76895;BMP280;65855;42.030;13.078;2023-03-23T00:15:51;93730.25;;;7.42
76895;BMP280;65855;42.030;13.078;2023-03-23T00:18:18;93731.25;;;7.26
76895;BMP280;65855;42.030;13.078;2023-03-23T00:20:52;93731.28;;;6.43
76895;BMP280;65855;42.030;13.078;2023-03-23T00:23:20;93730.28;;;6.93
76895;BMP280;65855;42.030;13.078;2023-03-23T00:25:51;93728.78;;;6.87
76895;BMP280;65855;42.030;13.078;2023-03-23T00:28:19;93727.53;;;7.09
76895;BMP280;65855;42.030;13.078;2023-03-23T00:31:03;93716.69;;;7.48
76895;BMP280;65855;42.030;13.078;2023-03-23T00:33:33;93721.00;;;7.28
76895;BMP280;65855;42.030;13.078;2023-03-23T00:36:04;93723.28;;;7.15
76895;BMP280;65855;42.030;13.078;2023-03-23T00:38:30;93724.78;;;7.01
76895;BMP280;65855;42.030;13.078;2023-03-23T00:40:56;93720.75;;;7.05
76895;BMP280;65855;42.030;13.078;2023-03-23T00:43:23;93723.28;;;6.95
76895;BMP280;65855;42.030;13.078;2023-03-23T00:45:50;93719.53;;;7.02
76895;BMP280;65855;42.030;13.078;2023-03-23T00:48:21;93710.25;;;7.03
76895;BMP280;65855;42.030;13.078;2023-03-23T00:50:47;93723.25;;;7.05
76895;BMP280;65855;42.030;13.078;2023-03-23T00:53:13;93714.25;;;6.89
76895;BMP280;65855;42.030;13.078;2023-03-23T00:55:41;93717.97;;;7.31
76895;BMP280;65855;42.030;13.078;2023-03-23T00:58:09;93718.72;;;7.31
76895;BMP280;65855;42.030;13.078;2023-03-23T01:00:35;93710.47;;;7.16
76895;BMP280;65855;42.030;13.078;2023-03-23T01:03:01;93711.75;;;7.09
76895;BMP280;65855;42.030;13.078;2023-03-23T01:05:27;93710.22;;;7.22
76895;BMP280;65855;42.030;13.078;2023-03-23T01:08:00;93705.69;;;7.34
76895;BMP280;65855;42.030;13.078;2023-03-23T01:10:27;93707.47;;;7.04
76895;BMP280;65855;42.030;13.078;2023-03-23T01:12:54;93714.75;;;6.76
76895;BMP280;65855;42.030;13.078;2023-03-23T01:15:20;93711.22;;;6.33
76895;BMP280;65855;42.030;13.078;2023-03-23T01:17:46;93709.47;;;6.48
76895;BMP280;65855;42.030;13.078;2023-03-23T01:20:13;93703.22;;;6.85
76895;BMP280;65855;42.030;13.078;2023-03-23T01:22:41;93688.63;;;7.31
76895;BMP280;65855;42.030;13.078;2023-03-23T01:25:07;93694.38;;;7.37
76895;BMP280;65855;42.030;13.078;2023-03-23T01:27:33;93693.16;;;7.29
76895;BMP280;65855;42.030;13.078;2023-03-23T01:29:59;93679.19;;;6.89
76895;BMP280;65855;42.030;13.078;2023-03-23T01:32:25;93681.69;;;6.65
76895;BMP280;65855;42.030;13.078;2023-03-23T01:34:50;93674.63;;;7.20
76895;BMP280;65855;42.030;13.078;2023-03-23T01:37:16;93682.09;;;7.40
76895;BMP280;65855;42.030;13.078;2023-03-23T01:39:41;93671.34;;;7.30
76895;BMP280;65855;42.030;13.078;2023-03-23T01:42:08;93673.56;;;7.41
76895;BMP280;65855;42.030;13.078;2023-03-23T01:46:59;93668.56;;;7.41
76895;BMP280;65855;42.030;13.078;2023-03-23T01:49:32;93668.56;;;7.36
76895;BMP280;65855;42.030;13.078;2023-03-23T01:52:20;93673.25;;;7.57
76895;BMP280;65855;42.030;13.078;2023-03-23T01:54:49;93669.03;;;7.48
76895;BMP280;65855;42.030;13.078;2023-03-23T01:57:17;93663.03;;;7.39
76895;BMP280;65855;42.030;13.078;2023-03-23T01:59:45;93661.56;;;7.18
76895;BMP280;65855;42.030;13.078;2023-03-23T02:02:13;93670.13;;;7.13
76895;BMP280;65855;42.030;13.078;2023-03-23T02:04:40;93667.66;;;6.88
76895;BMP280;65855;42.030;13.078;2023-03-23T02:07:07;93663.66;;;6.72
76895;BMP280;65855;42.030;13.078;2023-03-23T02:09:33;93667.91;;;6.62
76895;BMP280;65855;42.030;13.078;2023-03-23T02:11:58;93661.16;;;6.48
76895;BMP280;65855;42.030;13.078;2023-03-23T02:14:26;93665.63;;;6.36
76895;BMP280;65855;42.030;13.078;2023-03-23T02:17:06;93664.13;;;6.21
76895;BMP280;65855;42.030;13.078;2023-03-23T02:24:55;93664.09;;;6.01
76895;BMP280;65855;42.030;13.078;2023-03-23T02:30:10;93662.69;;;5.59
76895;BMP280;65855;42.030;13.078;2023-03-23T02:35:19;93667.81;;;5.28
76895;BMP280;65855;42.030;13.078;2023-03-23T02:37:49;93663.34;;;5.35
76895;BMP280;65855;42.030;13.078;2023-03-23T02:40:20;93665.56;;;5.32
76895;BMP280;65855;42.030;13.078;2023-03-23T02:42:49;93672.59;;;4.89
76895;BMP280;65855;42.030;13.078;2023-03-23T02:45:17;93661.00;;;5.19
76895;BMP280;65855;42.030;13.078;2023-03-23T02:47:45;93662.97;;;5.12
76895;BMP280;65855;42.030;13.078;2023-03-23T02:50:14;93661.78;;;5.25
76895;BMP280;65855;42.030;13.078;2023-03-23T02:52:41;93659.56;;;5.33
76895;BMP280;65855;42.030;13.078;2023-03-23T02:55:09;93663.81;;;5.32
76895;BMP280;65855;42.030;13.078;2023-03-23T02:57:37;93675.28;;;5.24
76895;BMP280;65855;42.030;13.078;2023-03-23T03:00:07;93668.16;;;5.01
76895;BMP280;65855;42.030;13.078;2023-03-23T03:02:43;93667.09;;;4.92
76895;BMP280;65855;42.030;13.078;2023-03-23T03:08:45;93677.13;;;4.61
76895;BMP280;65855;42.030;13.078;2023-03-23T03:11:08;93673.81;;;4.51
76895;BMP280;65855;42.030;13.078;2023-03-23T03:16:28;93672.34;;;4.55
76895;BMP280;65855;42.030;13.078;2023-03-23T03:18:59;93672.75;;;4.78
76895;BMP280;65855;42.030;13.078;2023-03-23T03:21:30;93675.22;;;4.42
76895;BMP280;65855;42.030;13.078;2023-03-23T03:23:58;93677.91;;;4.36
76895;BMP280;65855;42.030;13.078;2023-03-23T03:26:26;93672.56;;;4.84
76895;BMP280;65855;42.030;13.078;2023-03-23T03:28:54;93661.16;;;4.98
76895;BMP280;65855;42.030;13.078;2023-03-23T03:31:23;93665.72;;;5.11
76895;BMP280;65855;42.030;13.078;2023-03-23T03:33:51;93674.75;;;5.17
76895;BMP280;65855;42.030;13.078;2023-03-23T03:36:20;93675.06;;;5.85
76895;BMP280;65855;42.030;13.078;2023-03-23T03:38:49;93666.13;;;6.19
76895;BMP280;65855;42.030;13.078;2023-03-23T03:41:16;93665.66;;;6.66
76895;BMP280;65855;42.030;13.078;2023-03-23T03:43:41;93660.13;;;6.73
76895;BMP280;65855;42.030;13.078;2023-03-23T03:46:07;93661.78;;;5.25
76895;BMP280;65855;42.030;13.078;2023-03-23T03:48:33;93668.94;;;4.66
76895;BMP280;65855;42.030;13.078;2023-03-23T03:50:58;93668.31;;;4.85
76895;BMP280;65855;42.030;13.078;2023-03-23T03:53:26;93662.22;;;5.12
76895;BMP280;65855;42.030;13.078;2023-03-23T03:55:52;93666.00;;;5.19
76895;BMP280;65855;42.030;13.078;2023-03-23T03:58:21;93667.72;;;5.09
76895;BMP280;65855;42.030;13.078;2023-03-23T04:00:48;93679.88;;;5.01
76895;BMP280;65855;42.030;13.078;2023-03-23T04:03:14;93680.38;;;4.98
76895;BMP280;65855;42.030;13.078;2023-03-23T04:05:40;93683.47;;;4.74
76895;BMP280;65855;42.030;13.078;2023-03-23T04:08:07;93688.34;;;4.59
76895;BMP280;65855;42.030;13.078;2023-03-23T04:10:32;93692.22;;;4.76
76895;BMP280;65855;42.030;13.078;2023-03-23T04:12:58;93693.38;;;4.07
76895;BMP280;65855;42.030;13.078;2023-03-23T04:15:25;93698.22;;;3.92
76895;BMP280;65855;42.030;13.078;2023-03-23T04:17:51;93696.63;;;4.07
76895;BMP280;65855;42.030;13.078;2023-03-23T04:20:17;93698.41;;;4.12
76895;BMP280;65855;42.030;13.078;2023-03-23T04:22:52;93700.50;;;4.20
76895;BMP280;65855;42.030;13.078;2023-03-23T04:25:20;93703.63;;;4.10
76895;BMP280;65855;42.030;13.078;2023-03-23T04:27:47;93695.94;;;4.17
76895;BMP280;65855;42.030;13.078;2023-03-23T04:30:19;93698.41;;;4.12
76895;BMP280;65855;42.030;13.078;2023-03-23T04:32:47;93701.81;;;4.27
76895;BMP280;65855;42.030;13.078;2023-03-23T04:35:16;93705.22;;;4.21
76895;BMP280;65855;42.030;13.078;2023-03-23T04:37:42;93697.44;;;4.13
76895;BMP280;65855;42.030;13.078;2023-03-23T04:40:09;93698.13;;;4.08
76895;BMP280;65855;42.030;13.078;2023-03-23T04:42:38;93698.31;;;4.02
76895;BMP280;65855;42.030;13.078;2023-03-23T04:45:06;93695.13;;;4.32
76895;BMP280;65855;42.030;13.078;2023-03-23T04:47:34;93693.28;;;4.23
76895;BMP280;65855;42.030;13.078;2023-03-23T04:50:05;93695.25;;;3.95
76895;BMP280;65855;42.030;13.078;2023-03-23T04:52:32;93693.75;;;4.46
76895;BMP280;65855;42.030;13.078;2023-03-23T04:54:57;93684.53;;;5.23
76895;BMP280;65855;42.030;13.078;2023-03-23T04:57:23;93691.75;;;4.79
76895;BMP280;65855;42.030;13.078;2023-03-23T04:59:48;93690.50;;;4.81
76895;BMP280;65855;42.030;13.078;2023-03-23T05:02:14;93692.47;;;5.61
76895;BMP280;65855;42.030;13.078;2023-03-23T05:04:40;93686.13;;;6.09
76895;BMP280;65855;42.030;13.078;2023-03-23T05:07:07;93682.63;;;6.05
76895;BMP280;65855;42.030;13.078;2023-03-23T05:09:33;93682.63;;;6.15
76895;BMP280;65855;42.030;13.078;2023-03-23T05:12:04;93679.19;;;6.40
76895;BMP280;65855;42.030;13.078;2023-03-23T05:14:29;93675.19;;;6.44
76895;BMP280;65855;42.030;13.078;2023-03-23T05:16:55;93679.66;;;6.27
76895;BMP280;65855;42.030;13.078;2023-03-23T05:19:21;93676.34;;;5.93
76895;BMP280;65855;42.030;13.078;2023-03-23T05:21:46;93675.13;;;6.15
76895;BMP280;65855;42.030;13.078;2023-03-23T05:24:12;93675.16;;;6.24
76895;BMP280;65855;42.030;13.078;2023-03-23T05:26:37;93678.69;;;6.43
76895;BMP280;65855;42.030;13.078;2023-03-23T05:29:03;93667.16;;;6.42
76895;BMP280;65855;42.030;13.078;2023-03-23T05:31:28;93671.91;;;6.48
76895;BMP280;65855;42.030;13.078;2023-03-23T05:33:54;93675.69;;;6.46
76895;BMP280;65855;42.030;13.078;2023-03-23T05:36:19;93670.16;;;6.34
76895;BMP280;65855;42.030;13.078;2023-03-23T05:38:45;93675.38;;;6.23
76895;BMP280;65855;42.030;13.078;2023-03-23T05:41:13;93676.16;;;6.19
76895;BMP280;65855;42.030;13.078;2023-03-23T05:43:39;93684.09;;;5.96
76895;BMP280;65855;42.030;13.078;2023-03-23T05:46:04;93683.13;;;6.17
76895;BMP280;65855;42.030;13.078;2023-03-23T05:48:29;93677.16;;;6.32
76895;BMP280;65855;42.030;13.078;2023-03-23T05:50:55;93675.16;;;6.49
76895;BMP280;65855;42.030;13.078;2023-03-23T05:53:22;93676.94;;;6.58
76895;BMP280;65855;42.030;13.078;2023-03-23T05:55:48;93679.16;;;6.35
76895;BMP280;65855;42.030;13.078;2023-03-23T05:58:14;93678.91;;;6.27
76895;BMP280;65855;42.030;13.078;2023-03-23T06:00:39;93679.63;;;6.08
76895;BMP280;65855;42.030;13.078;2023-03-23T06:03:05;93680.78;;;5.76
76895;BMP280;65855;42.030;13.078;2023-03-23T06:05:31;93692.19;;;6.32
76895;BMP280;65855;42.030;13.078;2023-03-23T06:07:58;93698.72;;;6.77
76895;BMP280;65855;42.030;13.078;2023-03-23T06:10:24;93682.88;;;7.31
76895;BMP280;65855;42.030;13.078;2023-03-23T06:12:50;93681.72;;;7.76
76895;BMP280;65855;42.030;13.078;2023-03-23T06:15:16;93684.22;;;8.28
76895;BMP280;65855;42.030;13.078;2023-03-23T06:17:42;93688.00;;;8.68
76895;BMP280;65855;42.030;13.078;2023-03-23T06:20:08;93683.16;;;9.56
76895;BMP280;65855;42.030;13.078;2023-03-23T06:22:38;93685.38;;;9.85
76895;BMP280;65855;42.030;13.078;2023-03-23T06:25:09;93690.91;;;10.05
76895;BMP280;65855;42.030;13.078;2023-03-23T06:27:34;93688.13;;;10.07
76895;BMP280;65855;42.030;13.078;2023-03-23T06:30:01;93682.81;;;10.26
76895;BMP280;65855;42.030;13.078;2023-03-23T06:32:29;93692.69;;;10.59
76895;BMP280;65855;42.030;13.078;2023-03-23T06:34:54;93699.22;;;11.09
76895;BMP280;65855;42.030;13.078;2023-03-23T06:37:20;93683.53;;;11.12
76895;BMP280;65855;42.030;13.078;2023-03-23T06:39:45;93680.91;;;11.49
76895;BMP280;65855;42.030;13.078;2023-03-23T06:42:11;93680.91;;;11.88
76895;BMP280;65855;42.030;13.078;2023-03-23T06:44:37;93690.06;;;12.46
76895;BMP280;65855;42.030;13.078;2023-03-23T06:47:03;93683.78;;;11.95
76895;BMP280;65855;42.030;13.078;2023-03-23T06:49:29;93682.09;;;12.87
76895;BMP280;65855;42.030;13.078;2023-03-23T06:51:54;93680.81;;;13.19
76895;BMP280;65855;42.030;13.078;2023-03-23T06:54:21;93684.06;;;13.88
76895;BMP280;65855;42.030;13.078;2023-03-23T06:56:47;93679.75;;;14.51
76895;BMP280;65855;42.030;13.078;2023-03-23T06:59:12;93687.06;;;15.03
76895;BMP280;65855;42.030;13.078;2023-03-23T07:01:39;93683.59;;;15.24
76895;BMP280;65855;42.030;13.078;2023-03-23T07:04:05;93682.50;;;15.50
76895;BMP280;65855;42.030;13.078;2023-03-23T07:06:31;93685.31;;;15.93
76895;BMP280;65855;42.030;13.078;2023-03-23T07:08:57;93682.75;;;15.93
76895;BMP280;65855;42.030;13.078;2023-03-23T07:11:23;93685.56;;;15.72
76895;BMP280;65855;42.030;13.078;2023-03-23T07:13:49;93685.63;;;16.20
76895;BMP280;65855;42.030;13.078;2023-03-23T07:16:16;93692.53;;;16.20
76895;BMP280;65855;42.030;13.078;2023-03-23T07:18:42;93687.84;;;16.90
76895;BMP280;65855;42.030;13.078;2023-03-23T07:21:07;93698.41;;;16.81
76895;BMP280;65855;42.030;13.078;2023-03-23T07:23:33;93683.56;;;17.34
76895;BMP280;65855;42.030;13.078;2023-03-23T07:25:58;93688.06;;;17.61
76895;BMP280;65855;42.030;13.078;2023-03-23T07:28:24;93689.56;;;17.50
76895;BMP280;65855;42.030;13.078;2023-03-23T07:30:50;93684.72;;;18.39
76895;BMP280;65855;42.030;13.078;2023-03-23T07:33:16;93683.78;;;17.97
76895;BMP280;65855;42.030;13.078;2023-03-23T07:35:42;93685.53;;;17.73
76895;BMP280;65855;42.030;13.078;2023-03-23T07:38:08;93681.53;;;18.19
76895;BMP280;65855;42.030;13.078;2023-03-23T07:40:34;93696.78;;;16.76
76895;BMP280;65855;42.030;13.078;2023-03-23T07:43:01;93689.84;;;16.65
76895;BMP280;65855;42.030;13.078;2023-03-23T07:45:27;93686.63;;;17.83
76895;BMP280;65855;42.030;13.078;2023-03-23T07:47:53;93691.41;;;16.09
76895;BMP280;65855;42.030;13.078;2023-03-23T07:50:18;93691.81;;;15.83
76895;BMP280;65855;42.030;13.078;2023-03-23T07:52:47;93697.66;;;17.00
76895;BMP280;65855;42.030;13.078;2023-03-23T07:55:13;93683.13;;;17.88
76895;BMP280;65855;42.030;13.078;2023-03-23T07:57:43;93689.78;;;19.71
76895;BMP280;65855;42.030;13.078;2023-03-23T08:00:09;93679.72;;;20.08
76895;BMP280;65855;42.030;13.078;2023-03-23T08:02:40;93693.38;;;19.54
76895;BMP280;65855;42.030;13.078;2023-03-23T08:05:07;93680.56;;;19.81
76895;BMP280;65855;42.030;13.078;2023-03-23T08:07:34;93683.13;;;20.61
76895;BMP280;65855;42.030;13.078;2023-03-23T08:09:59;93679.13;;;21.78
76895;BMP280;65855;42.030;13.078;2023-03-23T08:12:25;93676.09;;;19.78
76895;BMP280;65855;42.030;13.078;2023-03-23T08:14:52;93685.63;;;20.94
76895;BMP280;65855;42.030;13.078;2023-03-23T08:17:19;93680.19;;;20.28
76895;BMP280;65855;42.030;13.078;2023-03-23T08:19:44;93682.59;;;19.19
76895;BMP280;65855;42.030;13.078;2023-03-23T08:22:11;93689.16;;;19.04
76895;BMP280;65855;42.030;13.078;2023-03-23T08:24:37;93680.28;;;19.56
76895;BMP280;65855;42.030;13.078;2023-03-23T08:27:03;93675.94;;;20.36
76895;BMP280;65855;42.030;13.078;2023-03-23T08:29:28;93677.38;;;20.33
76895;BMP280;65855;42.030;13.078;2023-03-23T08:31:54;93685.28;;;20.96
76895;BMP280;65855;42.030;13.078;2023-03-23T08:34:20;93675.84;;;21.37
76895;BMP280;65855;42.030;13.078;2023-03-23T08:36:45;93670.53;;;21.27
76895;BMP280;65855;42.030;13.078;2023-03-23T08:39:12;93669.53;;;22.45
76895;BMP280;65855;42.030;13.078;2023-03-23T08:41:40;93673.84;;;22.92
76895;BMP280;65855;42.030;13.078;2023-03-23T08:44:05;93672.16;;;23.35
76895;BMP280;65855;42.030;13.078;2023-03-23T08:46:31;93670.38;;;23.78
76895;BMP280;65855;42.030;13.078;2023-03-23T08:48:56;93669.53;;;24.66
76895;BMP280;65855;42.030;13.078;2023-03-23T08:51:22;93669.41;;;24.39
76895;BMP280;65855;42.030;13.078;2023-03-23T08:53:47;93674.66;;;24.07
76895;BMP280;65855;42.030;13.078;2023-03-23T08:56:13;93671.72;;;24.61
76895;BMP280;65855;42.030;13.078;2023-03-23T08:58:40;93674.63;;;25.33
76895;BMP280;65855;42.030;13.078;2023-03-23T09:01:06;93674.28;;;25.31
76895;BMP280;65855;42.030;13.078;2023-03-23T09:03:33;93671.69;;;25.38
76895;BMP280;65855;42.030;13.078;2023-03-23T09:06:05;93670.38;;;26.02
76895;BMP280;65855;42.030;13.078;2023-03-23T09:08:32;93678.47;;;24.76
76895;BMP280;65855;42.030;13.078;2023-03-23T09:11:08;93672.94;;;25.99
76895;BMP280;65855;42.030;13.078;2023-03-23T09:13:36;93673.69;;;26.09
76895;BMP280;65855;42.030;13.078;2023-03-23T09:16:02;93665.53;;;26.62
76895;BMP280;65855;42.030;13.078;2023-03-23T09:18:29;93676.22;;;26.78
76895;BMP280;65855;42.030;13.078;2023-03-23T09:20:58;93680.31;;;26.41
76895;BMP280;65855;42.030;13.078;2023-03-23T09:23:24;93683.16;;;27.08
76895;BMP280;65855;42.030;13.078;2023-03-23T09:25:50;93673.97;;;26.87
76895;BMP280;65855;42.030;13.078;2023-03-23T09:28:17;93677.13;;;27.39
76895;BMP280;65855;42.030;13.078;2023-03-23T09:30:43;93675.56;;;27.51
76895;BMP280;65855;42.030;13.078;2023-03-23T09:33:10;93673.97;;;27.71
76895;BMP280;65855;42.030;13.078;2023-03-23T09:35:37;93672.00;;;27.18
76895;BMP280;65855;42.030;13.078;2023-03-23T09:38:04;93676.44;;;27.21
76895;BMP280;65855;42.030;13.078;2023-03-23T09:49:15;93680.69;;;25.99
76895;BMP280;65855;42.030;13.078;2023-03-23T09:52:13;93686.88;;;25.46
76895;BMP280;65855;42.030;13.078;2023-03-23T09:54:42;93691.34;;;24.19
76895;BMP280;65855;42.030;13.078;2023-03-23T09:59:58;93690.09;;;22.99
76895;BMP280;65855;42.030;13.078;2023-03-23T10:02:31;93689.34;;;20.78
76895;BMP280;65855;42.030;13.078;2023-03-23T10:07:50;93702.09;;;23.17
76895;BMP280;65855;42.030;13.078;2023-03-23T10:10:16;93696.06;;;21.83
76895;BMP280;65855;42.030;13.078;2023-03-23T10:12:51;93696.91;;;21.46
76895;BMP280;65855;42.030;13.078;2023-03-23T10:15:23;93700.34;;;21.16
76895;BMP280;65855;42.030;13.078;2023-03-23T10:25:45;93693.09;;;21.21
76895;BMP280;65855;42.030;13.078;2023-03-23T10:28:34;93687.56;;;20.64
76895;BMP280;65855;42.030;13.078;2023-03-23T10:31:00;93689.53;;;20.21
76895;BMP280;65855;42.030;13.078;2023-03-23T10:33:40;93687.03;;;20.24
76895;BMP280;65855;42.030;13.078;2023-03-23T10:36:16;93682.44;;;20.82
76895;BMP280;65855;42.030;13.078;2023-03-23T10:38:49;93690.97;;;20.86
76895;BMP280;65855;42.030;13.078;2023-03-23T10:41:19;93692.81;;;20.70
76895;BMP280;65855;42.030;13.078;2023-03-23T10:43:46;93684.69;;;19.71
76895;BMP280;65855;42.030;13.078;2023-03-23T10:49:02;93692.38;;;21.21
76895;BMP280;65855;42.030;13.078;2023-03-23T10:51:37;93684.97;;;21.16
76895;BMP280;65855;42.030;13.078;2023-03-23T10:54:05;93684.78;;;21.87
76895;BMP280;65855;42.030;13.078;2023-03-23T10:56:38;93680.84;;;23.60
76895;BMP280;65855;42.030;13.078;2023-03-23T10:59:28;93685.50;;;21.43
76895;BMP280;65855;42.030;13.078;2023-03-23T11:02:00;93679.81;;;22.19
76895;BMP280;65855;42.030;13.078;2023-03-23T11:04:28;93688.34;;;23.39
76895;BMP280;65855;42.030;13.078;2023-03-23T11:06:58;93681.59;;;23.28
76895;BMP280;65855;42.030;13.078;2023-03-23T11:09:36;93675.22;;;24.92
76895;BMP280;65855;42.030;13.078;2023-03-23T11:12:02;93677.53;;;25.11
76895;BMP280;65855;42.030;13.078;2023-03-23T11:14:30;93684.78;;;21.87
76895;BMP280;65855;42.030;13.078;2023-03-23T11:16:59;93687.84;;;22.43
76895;BMP280;65855;42.030;13.078;2023-03-23T11:19:30;93692.09;;;23.41
76895;BMP280;65855;42.030;13.078;2023-03-23T11:22:28;93687.69;;;25.74
76895;BMP280;65855;42.030;13.078;2023-03-23T11:24:59;93675.16;;;26.10
76895;BMP280;65855;42.030;13.078;2023-03-23T11:27:27;93675.91;;;26.01
76895;BMP280;65855;42.030;13.078;2023-03-23T11:29:55;93676.66;;;26.63
76895;BMP280;65855;42.030;13.078;2023-03-23T11:32:27;93681.81;;;23.84
76895;BMP280;65855;42.030;13.078;2023-03-23T11:35:01;93688.56;;;21.30
76895;BMP280;65855;42.030;13.078;2023-03-23T11:37:37;93680.22;;;21.77
76895;BMP280;65855;42.030;13.078;2023-03-23T11:42:43;93682.28;;;21.68
76895;BMP280;65855;42.030;13.078;2023-03-23T11:45:19;93678.09;;;20.00
76895;BMP280;65855;42.030;13.078;2023-03-23T11:47:55;93683.66;;;20.05
76895;BMP280;65855;42.030;13.078;2023-03-23T11:50:26;93683.59;;;20.17
76895;BMP280;65855;42.030;13.078;2023-03-23T11:55:49;93680.25;;;25.52
76895;BMP280;65855;42.030;13.078;2023-03-23T11:58:20;93677.34;;;25.67
76895;BMP280;65855;42.030;13.078;2023-03-23T12:00:56;93680.09;;;25.14
76895;BMP280;65855;42.030;13.078;2023-03-23T12:09:16;93678.66;;;25.27
76895;BMP280;65855;42.030;13.078;2023-03-23T12:12:09;93676.06;;;22.64
76895;BMP280;65855;42.030;13.078;2023-03-23T12:17:23;93662.44;;;27.08
76895;BMP280;65855;42.030;13.078;2023-03-23T12:20:20;93676.97;;;23.08
76895;BMP280;65855;42.030;13.078;2023-03-23T12:28:17;93681.25;;;24.04
76895;BMP280;65855;42.030;13.078;2023-03-23T12:30:53;93667.38;;;25.76
76895;BMP280;65855;42.030;13.078;2023-03-23T12:36:14;93670.91;;;27.90
76895;BMP280;65855;42.030;13.078;2023-03-23T12:39:05;93674.03;;;27.61
76895;BMP280;65855;42.030;13.078;2023-03-23T12:41:37;93660.91;;;28.35
76895;BMP280;65855;42.030;13.078;2023-03-23T12:44:09;93671.81;;;28.20
76895;BMP280;65855;42.030;13.078;2023-03-23T12:51:48;93657.59;;;27.88
76895;BMP280;65855;42.030;13.078;2023-03-23T12:54:23;93657.41;;;26.36
76895;BMP280;65855;42.030;13.078;2023-03-23T12:57:14;93656.91;;;28.70
76895;BMP280;65855;42.030;13.078;2023-03-23T12:59:47;93659.41;;;29.43
76895;BMP280;65855;42.030;13.078;2023-03-23T13:02:22;93647.66;;;29.87
76895;BMP280;65855;42.030;13.078;2023-03-23T13:08:00;93654.13;;;29.49
76895;BMP280;65855;42.030;13.078;2023-03-23T13:10:38;93653.34;;;25.84
76895;BMP280;65855;42.030;13.078;2023-03-23T13:13:12;93658.03;;;25.24
76895;BMP280;65855;42.030;13.078;2023-03-23T13:18:12;93654.75;;;25.37
76895;BMP280;65855;42.030;13.078;2023-03-23T13:23:24;93654.47;;;25.69
76895;BMP280;65855;42.030;13.078;2023-03-23T13:26:06;93654.09;;;25.71
76895;BMP280;65855;42.030;13.078;2023-03-23T13:31:17;93651.09;;;30.29
76895;BMP280;65855;42.030;13.078;2023-03-23T13:33:52;93646.66;;;28.13
76895;BMP280;65855;42.030;13.078;2023-03-23T13:36:28;93652.09;;;27.75
76895;BMP280;65855;42.030;13.078;2023-03-23T13:38:55;93651.25;;;29.70
76895;BMP280;65855;42.030;13.078;2023-03-23T13:41:22;93648.06;;;29.85
76895;BMP280;65855;42.030;13.078;2023-03-23T13:43:48;93651.16;;;25.79
76895;BMP280;65855;42.030;13.078;2023-03-23T13:46:29;93651.47;;;25.50
76895;BMP280;65855;42.030;13.078;2023-03-23T13:49:16;93658.50;;;26.52
76895;BMP280;65855;42.030;13.078;2023-03-23T13:54:41;93655.66;;;27.38
76895;BMP280;65855;42.030;13.078;2023-03-23T13:57:36;93652.81;;;29.05
76895;BMP280;65855;42.030;13.078;2023-03-23T14:03:05;93658.16;;;25.89
76895;BMP280;65855;42.030;13.078;2023-03-23T14:05:34;93655.56;;;25.72
76895;BMP280;65855;42.030;13.078;2023-03-23T14:10:48;93658.59;;;27.44
76895;BMP280;65855;42.030;13.078;2023-03-23T14:13:33;93657.72;;;25.39
76895;BMP280;65855;42.030;13.078;2023-03-23T14:16:00;93651.47;;;26.70
76895;BMP280;65855;42.030;13.078;2023-03-23T14:18:38;93648.03;;;27.07
76895;BMP280;65855;42.030;13.078;2023-03-23T14:21:05;93644.56;;;28.41
76895;BMP280;65855;42.030;13.078;2023-03-23T14:23:33;93649.94;;;25.32
76895;BMP280;65855;42.030;13.078;2023-03-23T14:26:06;93648.88;;;25.40
76895;BMP280;65855;42.030;13.078;2023-03-23T14:28:41;93643.81;;;27.41
76895;BMP280;65855;42.030;13.078;2023-03-23T14:31:34;93637.44;;;26.57
76895;BMP280;65855;42.030;13.078;2023-03-23T14:34:09;93645.94;;;22.94
76895;BMP280;65855;42.030;13.078;2023-03-23T14:36:37;93648.59;;;22.17
76895;BMP280;65855;42.030;13.078;2023-03-23T14:39:07;93643.53;;;23.40
76895;BMP280;65855;42.030;13.078;2023-03-23T14:41:37;93638.97;;;24.05
76895;BMP280;65855;42.030;13.078;2023-03-23T14:44:07;93634.94;;;26.03
76895;BMP280;65855;42.030;13.078;2023-03-23T14:46:33;93649.91;;;23.20
76895;BMP280;65855;42.030;13.078;2023-03-23T14:49:01;93653.06;;;24.81
76895;BMP280;65855;42.030;13.078;2023-03-23T14:51:27;93650.19;;;22.00
76895;BMP280;65855;42.030;13.078;2023-03-23T14:53:53;93653.41;;;21.53
76895;BMP280;65855;42.030;13.078;2023-03-23T14:56:22;93656.53;;;22.89
76895;BMP280;65855;42.030;13.078;2023-03-23T14:58:50;93656.16;;;23.52
76895;BMP280;65855;42.030;13.078;2023-03-23T15:01:31;93653.66;;;21.26
76895;BMP280;65855;42.030;13.078;2023-03-23T15:06:40;93661.78;;;20.57
76895;BMP280;65855;42.030;13.078;2023-03-23T15:09:15;93659.44;;;19.27
76895;BMP280;65855;42.030;13.078;2023-03-23T15:11:52;93669.75;;;19.30
76895;BMP280;65855;42.030;13.078;2023-03-23T15:14:21;93664.19;;;18.86
76895;BMP280;65855;42.030;13.078;2023-03-23T15:16:49;93665.56;;;17.75
76895;BMP280;65855;42.030;13.078;2023-03-23T15:19:38;93670.78;;;18.13
76895;BMP280;65855;42.030;13.078;2023-03-23T15:22:19;93665.53;;;18.57
76895;BMP280;65855;42.030;13.078;2023-03-23T15:24:45;93677.13;;;18.54
76895;BMP280;65855;42.030;13.078;2023-03-23T15:27:24;93678.84;;;18.39
76895;BMP280;65855;42.030;13.078;2023-03-23T15:29:52;93670.44;;;17.56
76895;BMP280;65855;42.030;13.078;2023-03-23T15:32:27;93673.97;;;17.20
76895;BMP280;65855;42.030;13.078;2023-03-23T15:34:53;93680.88;;;17.63
76895;BMP280;65855;42.030;13.078;2023-03-23T15:37:27;93673.72;;;17.68
76895;BMP280;65855;42.030;13.078;2023-03-23T15:39:54;93682.75;;;17.54
76895;BMP280;65855;42.030;13.078;2023-03-23T15:42:24;93678.91;;;17.48
76895;BMP280;65855;42.030;13.078;2023-03-23T15:47:52;93683.97;;;16.84
76895;BMP280;65855;42.030;13.078;2023-03-23T15:52:52;93683.09;;;17.01